Kariba, Zimbabwe

1:12 PM CAT on December 05, 2016 (GMT +0200)
Kariba | | Change Station

Elev 1699 ft 16.52 °S, 28.88 °E | Updated 12 minutes ago

Thunderstorm
Thunderstorm
82 °F
Feels Like 85 °F
N
1
Wind Variable Wind from SE

Today
High -- | Low -- °F
--% Chance of Precip.
Yesterday
High -- | Low -- °F
Precip. -- in
Pressure 29.89 in
Visibility 6.2 miles
Clouds Few 3500 ft
Mostly Cloudy 30000 ft
Heat Index 85 °F
Dew Point 68 °F
Humidity 62%
Rainfall 0.00 in
Snow Depth Not available.
5:23 AM 6:27 PM
Waxing Crescent, 30% visible
METAR FVKB 051100Z 14001KT 9999 TS FEW035CB BKN300 28/20 Q1012 TEMPO TS
Pressure 29.89 in
Visibility 6.2 miles
Clouds Few 3500 ft
Mostly Cloudy 30000 ft
Heat Index 85 °F
Dew Point 68 °F
Humidity 62%
Rainfall 0.00 in
Snow Depth Not available.
5:23 AM 6:27 PM
Waxing Crescent, 30% visible
METAR FVKB 051100Z 14001KT 9999 TS FEW035CB BKN300 28/20 Q1012 TEMPO TS

10-Day Weather Forecast

No radar image for this location.
×

Almanac

Astronomy

Dec. 05, 2016 Rise Set
Actual Time
Civil Twilight
Nautical Twilight
Astronomical Twilight
Moon
Length of Visible Light
Length of Day
Tomorrow will be .
, % of the Moon is Illuminated

Today's Extremes

Country Highs Country Lows

Community

WunderPhotos

Upload Photos

1,955,777 photos uploaded!

WunderBlog® & News

Nearby

Air Quality

  Air Quality AQ Index Pollutant
Not available.

Snow Depth

Station Depth Elevation

Earthquake Activity

City Distance Mag. Time & Date
Minimum magnitude displayed is 2.5.

Coastal Water Temperatures

Place Temperature

Stations

Nearby Weather Stations

Station Location Temp. Windchill Dew Point Humidity Wind Precip. Elev Updated Type